• Join FlightAware (Why Join?)
  • Login
  • US Flag 
01:55AM EDT


 

Airport Tracker/Info


-or-


 

Live Flight TrackerFlight Track Log ✈ SWA1103 ✈ 25-Apr-2013 ✈ KBWI - KMDW

Flight Track Log - Related Links

Times and Time Zones

All times are in EDT time to prevent confusion due to time zone crossing. See the SWA1103 flight status page for this flight to view local times or setup timezone preferences in your user account.

Time Position Orientation Groundspeed Altitude Reporting Facility
EDT Latitude Longitude Course Direction KTS MPH feet Rate Location/Type
05:32PM 39.1833 -76.7500 284° West 202 232 2,800  Level Potomac TRACON
05:33PM 39.2000 -76.8333 284° West 247 284 4,800 3,120 Climbing Potomac TRACON
05:34PM 39.2167 -76.9500 280° West 259 298 9,500 3,300 Climbing Potomac TRACON
05:35PM 39.2167 -77.0500 270° West 298 343 11,800 2,700 Climbing Potomac TRACON
05:36PM 39.2000 -77.1667 260° West 342 394 15,000 2,880 Climbing Potomac TRACON
05:38PM 39.0514 -77.2917 213° Southwest 369 425 20,300 2,640 Climbing Washington Center
05:39PM 39.0186 -77.4083 250° West 351 404 22,800 1,620 Climbing Washington Center
05:40PM 39.0103 -77.5417 265° West 343 395 23,600 1,740 Climbing Washington Center
05:41PM 39.0017 -77.6831 266° West 365 420 26,300 1,680 Climbing Washington Center
05:42PM 38.9931 -77.8031 265° West 374 430 27,000 1,080 Climbing Washington Center
05:43PM 39.0194 -77.9508 283° West 385 443 28,500 1,800 Climbing Washington Center
05:44PM 39.0522 -78.0828 288° West 390 449 30,700 1,740 Climbing Washington Center
05:45PM 39.0556 -78.2192 272° West 390 449 32,000 600 Climbing Washington Center
05:46PM 39.0567 -78.3556 271° West 390 449 32,000 240 Level Washington Center
05:47PM 39.0556 -78.4919 269° West 383 441 32,500 480 Climbing Washington Center
05:48PM 39.0544 -78.6281 269° West 383 441 33,000 240 Climbing Washington Center
05:49PM 39.0550 -78.7672 270° West 383 441 33,000  Level Washington Center
05:50PM 39.0536 -78.8981 269° West 383 441 33,000 600 Level Washington Center
05:51PM 39.0517 -79.0344 269° West 383 441 34,300 1,500 Climbing Washington Center
05:52PM 39.0500 -79.1653 269° West 378 435 36,100 1,560 Climbing Washington Center
05:53PM 39.0481 -79.2961 269° West 372 428 37,500 900 Climbing Washington Center
05:54PM 39.0464 -79.4217 269° West 367 422 38,000 240 Climbing Washington Center
05:55PM 39.0461 -79.5528 270° West 367 422 38,000  Level Washington Center
05:56PM 39.0444 -79.6703 269° West 377 434 38,000  Level Washington Center
05:57PM 39.0419 -79.8011 269° West 372 428 38,000  Level Washington Center
05:58PM 39.0389 -79.9425 268° West 367 422 38,000  Level Washington Center
06:00PM 39.0300 -80.1817 267° West 361 415 38,000  Level Indianapolis Center
06:01PM 39.0272 -80.3097 268° West 359 413 38,000  Level Indianapolis Center
06:02PM 39.0758 -80.4253 298° West 370 426 38,000  Level Indianapolis Center
06:03PM 39.1233 -80.5406 298° West 365 420 38,000  Level Indianapolis Center
06:04PM 39.1733 -80.6564 299° West 369 425 38,000  Level Indianapolis Center
06:05PM 39.2225 -80.7719 299° West 369 425 38,000  Level Indianapolis Center
06:06PM 39.2819 -80.9125 299° West 373 429 38,000  Level Indianapolis Center
06:07PM 39.3322 -81.0286 299° West 372 428 38,000  Level Indianapolis Center
06:08PM 39.3822 -81.1472 299° West 377 434 38,000  Level Indianapolis Center
06:09PM 39.4325 -81.2672 299° West 380 437 38,000  Level Indianapolis Center
06:10PM 39.4814 -81.3872 298° West 379 436 38,000  Level Indianapolis Center
06:11PM 39.5339 -81.5072 300° West 384 442 38,000  Level Indianapolis Center
06:12PM 39.5908 -81.6486 298° West 372 428 38,000  Level Indianapolis Center
06:13PM 39.6411 -81.7661 299° West 373 429 38,000  Level Indianapolis Center
06:14PM 39.6886 -81.8850 297° West 373 429 38,000  Level Indianapolis Center
06:16PM 39.7422 -82.0136 298° West 372 428 38,000  Level Indianapolis Center
06:17PM 39.7908 -82.1339 298° West 373 429 38,000  Level Indianapolis Center
06:18PM 39.8403 -82.2536 298° West 373 429 38,000  Level Indianapolis Center
06:19PM 39.8894 -82.3736 298° West 373 429 38,000  Level Indianapolis Center
06:20PM 39.9386 -82.4944 298° West 375 432 38,000  Level Indianapolis Center
06:21PM 39.9867 -82.6158 297° West 374 430 38,000  Level Indianapolis Center
06:22PM 40.0433 -82.7567 298° West 373 429 38,000  Level Indianapolis Center
06:23PM 40.0922 -82.8775 298° West 374 430 38,000  Level Indianapolis Center
06:24PM 40.1406 -83.0000 297° West 377 434 38,000  Level Indianapolis Center
06:25PM 40.1889 -83.1217 298° West 376 433 38,000  Level Indianapolis Center
06:26PM 40.2372 -83.2431 298° West 376 433 38,000  Level Indianapolis Center
06:27PM 40.2853 -83.3656 297° West 377 434 38,000 -540 Level Indianapolis Center
06:28PM 40.3408 -83.5092 297° West 378 435 36,900 -1,020 Descending Indianapolis Center
06:29PM 40.3878 -83.6308 297° West 375 432 36,000 -780 Descending Indianapolis Center
06:30PM 40.4347 -83.7500 297° West 369 425 35,400 -1,020 Descending Indianapolis Center
06:31PM 40.4814 -83.8722 297° West 371 427 33,900 -1,260 Descending Indianapolis Center
06:32PM 40.5281 -83.9883 298° West 360 414 32,800 -1,080 Descending Indianapolis Center
06:33PM 40.5697 -84.1022 296° West 345 397 31,700 -1,140 Descending Indianapolis Center
06:34PM 40.6200 -84.2306 297° West 337 388 30,500 -840 Descending Indianapolis Center
06:35PM 40.6611 -84.3394 296° West 332 382 30,000 -300 Descending Indianapolis Center
06:36PM 40.7047 -84.4533 297° West 343 395 30,000  Level Indianapolis Center
06:37PM 40.7178 -84.4872 297° West 344 396 30,000  Level Chicago Center
06:38PM 40.7583 -84.5967 296° West 337 388 30,000  Level Chicago Center
06:39PM 40.7994 -84.7036 297° West 330 380 30,000 -540 Level Chicago Center
06:40PM 40.8992 -84.8628 310° West 330 380 28,600 -900 Descending Indianapolis Center
06:41PM 40.9306 -84.9003 318° Northwest 330 380 28,200 -1,020 Descending Chicago Center
06:42PM 40.9889 -84.9914 310° West 332 382 27,200 -960 Descending Chicago Center
06:43PM 41.0386 -85.0881 304° West 322 371 26,200 -840 Descending Chicago Center
06:44PM 41.0944 -85.1953 305° West 342 394 25,500 -840 Descending Chicago Center
06:45PM 41.1528 -85.3075 305° West 367 422 24,500 -1,080 Descending Chicago Center
06:46PM 41.2222 -85.4411 305° West 366 421 23,300 -1,140 Descending Chicago Center
06:47PM 41.2806 -85.5531 305° West 366 421 22,200 -1,020 Descending Chicago Center
06:48PM 41.3375 -85.6625 305° West 360 414 21,200 -1,020 Descending Chicago Center
06:49PM 41.3928 -85.7711 304° West 354 407 20,200 -1,020 Descending Chicago Center
06:50PM 41.4469 -85.8761 305° West 345 397 19,100 -1,020 Descending Chicago Center
06:51PM 41.4989 -85.9789 304° West 336 387 18,100 -1,260 Descending Chicago Center
06:52PM 41.5253 -86.0969 287° West 346 398 16,600 -2,220 Descending Chicago Center
06:53PM 41.5231 -86.2442 269° West 336 387 13,500 -2,400 Descending Chicago Center
06:54PM 41.5231 -86.3564 270° West 312 359 11,600 -1,620 Descending Chicago Center
06:55PM 41.5225 -86.4664 270° West 299 344 10,300 -780 Descending Chicago Center
06:56PM 41.4975 -86.5603 250° West 282 325 10,000 -300 Descending Chicago Center
06:57PM 41.4486 -86.6358 229° Southwest 270 311 9,700 -660 Descending Chicago Center
06:58PM 41.4072 -86.7164 236° Southwest 264 304 8,700 -1,080 Descending Chicago Center
06:59PM 41.4331 -86.8261 287° West 260 299 7,500 -1,080 Descending Chicago Center
07:00PM 41.4558 -86.9158 289° West 258 297 6,500 -720 Descending Chicago Center
07:01PM 41.4792 -87.0069 289° West 260 299 6,000 -240 Descending Chicago Center
07:02PM 41.5011 -87.0961 288° West 257 296 6,000  Level Chicago Center
07:03PM 41.5167 -87.1833 283° West 251 289 6,000 -240 Level Chicago TRACON
07:04PM 41.5167 -87.2667 270° West 255 293 5,700 -960 Descending Chicago TRACON
07:05PM 41.5167 -87.3667 270° West 255 293 4,100 -1,200 Descending Chicago TRACON
07:06PM 41.5278 -87.3886 304° West 255 293 4,000 -120 Descending Chicago Center
07:07PM 41.5686 -87.4494 312° West 235 270 4,000  Level Chicago Center
07:08PM 41.6081 -87.5042 314° West 220 253 4,000  Level Chicago Center
07:09PM 41.6489 -87.5625 313° West 199 229 4,000 -300 Level Chicago Center
07:10PM 41.6828 -87.6103 314° West 187 215 3,500 -720 Descending Chicago Center
07:10PM 41.7000 -87.6333 315° West 180 207 2,900 -1,080 Descending Chicago TRACON
07:11PM 41.7333 -87.6833 312° West 153 176 1,900 -900 Descending Chicago TRACON
07:12PM 41.7667 -87.7167 323° Northwest 128 147 1,200 -720 Descending Chicago TRACON